首页
METAR-TAF:

METAR-TAF

机场 :

伊林加, 坦桑尼亚

纬度: 07-40S, 经度: 035-45E, 海拔: 1426米

当前天气观测

该预报发布于55分钟前的22:00 UTC
静风
温度 19°C
湿度 94%
气压 1019 hPa
能见度10公里或以上
散云层高于1800英尺
多云层高于7000英尺

METAR: HTIR 262200Z 00000KT 9999 SCT018 BKN070 19/18 Q1019

时间: 01:55 (22:55 UTC)


TAF: 丢失

超过4000个机场的气象观测和天气预报(METAR&TAF报告)。

可查询的气象台以黄色和红色小点在地图上表示。

将鼠标移到小点上方,可查看气象台名称。

然后点击查看天气观测和预报。

如需切换地图:点击带黑十字的绿色按钮放大地图;点击带横线的绿色按钮缩小地图;或者点击绿色箭头查看邻近地区的地图。


METAR-TAF: